sensor_id;sensor_type;location;lat;lon;timestamp;P1;durP1;ratioP1;P2;durP2;ratioP2
20721;SDS011;10522;52.198;9.890;2022-07-30T00:01:58;7.57;;;2.73;;
20721;SDS011;10522;52.198;9.890;2022-07-30T00:04:24;3.87;;;2.60;;
20721;SDS011;10522;52.198;9.890;2022-07-30T00:06:49;6.00;;;3.07;;
20721;SDS011;10522;52.198;9.890;2022-07-30T00:09:15;3.53;;;2.43;;
20721;SDS011;10522;52.198;9.890;2022-07-30T00:11:40;4.53;;;2.67;;
20721;SDS011;10522;52.198;9.890;2022-07-30T00:14:06;3.37;;;2.70;;
20721;SDS011;10522;52.198;9.890;2022-07-30T00:16:32;4.00;;;3.00;;
20721;SDS011;10522;52.198;9.890;2022-07-30T00:18:57;3.87;;;2.77;;
20721;SDS011;10522;52.198;9.890;2022-07-30T00:21:23;4.10;;;2.90;;
20721;SDS011;10522;52.198;9.890;2022-07-30T00:23:48;5.13;;;3.03;;
20721;SDS011;10522;52.198;9.890;2022-07-30T00:26:14;4.77;;;2.90;;
20721;SDS011;10522;52.198;9.890;2022-07-30T00:28:39;3.30;;;3.00;;
20721;SDS011;10522;52.198;9.890;2022-07-30T00:31:05;6.70;;;2.87;;
20721;SDS011;10522;52.198;9.890;2022-07-30T00:33:30;5.73;;;3.30;;
20721;SDS011;10522;52.198;9.890;2022-07-30T00:35:56;4.40;;;2.93;;
20721;SDS011;10522;52.198;9.890;2022-07-30T00:38:21;3.97;;;2.87;;
20721;SDS011;10522;52.198;9.890;2022-07-30T00:40:47;4.87;;;3.53;;
20721;SDS011;10522;52.198;9.890;2022-07-30T00:43:13;3.70;;;3.00;;
20721;SDS011;10522;52.198;9.890;2022-07-30T00:45:40;9.40;;;2.93;;
20721;SDS011;10522;52.198;9.890;2022-07-30T00:48:06;6.37;;;3.33;;
20721;SDS011;10522;52.198;9.890;2022-07-30T00:50:32;6.00;;;2.63;;
20721;SDS011;10522;52.198;9.890;2022-07-30T00:52:58;4.57;;;3.40;;
20721;SDS011;10522;52.198;9.890;2022-07-30T00:55:24;6.00;;;2.40;;
20721;SDS011;10522;52.198;9.890;2022-07-30T00:57:49;3.67;;;2.87;;
20721;SDS011;10522;52.198;9.890;2022-07-30T01:00:15;5.40;;;3.20;;
20721;SDS011;10522;52.198;9.890;2022-07-30T01:02:41;6.13;;;3.40;;
20721;SDS011;10522;52.198;9.890;2022-07-30T01:05:06;5.10;;;2.80;;
20721;SDS011;10522;52.198;9.890;2022-07-30T01:07:32;4.40;;;3.27;;
20721;SDS011;10522;52.198;9.890;2022-07-30T01:09:58;3.63;;;3.30;;
20721;SDS011;10522;52.198;9.890;2022-07-30T01:12:24;5.67;;;3.10;;
20721;SDS011;10522;52.198;9.890;2022-07-30T01:14:50;4.27;;;3.37;;
20721;SDS011;10522;52.198;9.890;2022-07-30T01:17:17;5.77;;;3.37;;
20721;SDS011;10522;52.198;9.890;2022-07-30T01:19:42;6.57;;;3.53;;
20721;SDS011;10522;52.198;9.890;2022-07-30T01:27:27;6.17;;;3.30;;
20721;SDS011;10522;52.198;9.890;2022-07-30T01:29:55;5.90;;;3.73;;
20721;SDS011;10522;52.198;9.890;2022-07-30T01:32:22;3.80;;;3.37;;
20721;SDS011;10522;52.198;9.890;2022-07-30T01:34:49;5.53;;;3.37;;
20721;SDS011;10522;52.198;9.890;2022-07-30T01:40:57;4.27;;;3.60;;
20721;SDS011;10522;52.198;9.890;2022-07-30T01:43:23;4.60;;;3.60;;
20721;SDS011;10522;52.198;9.890;2022-07-30T01:45:50;4.10;;;3.17;;
20721;SDS011;10522;52.198;9.890;2022-07-30T01:48:18;4.80;;;3.67;;
20721;SDS011;10522;52.198;9.890;2022-07-30T01:50:45;4.50;;;2.90;;
20721;SDS011;10522;52.198;9.890;2022-07-30T01:53:14;4.60;;;3.83;;
20721;SDS011;10522;52.198;9.890;2022-07-30T01:55:43;4.97;;;3.30;;
20721;SDS011;10522;52.198;9.890;2022-07-30T01:58:09;4.70;;;3.83;;
20721;SDS011;10522;52.198;9.890;2022-07-30T02:00:37;5.43;;;4.00;;
20721;SDS011;10522;52.198;9.890;2022-07-30T02:03:04;5.83;;;3.40;;
20721;SDS011;10522;52.198;9.890;2022-07-30T02:05:32;3.33;;;3.03;;
20721;SDS011;10522;52.198;9.890;2022-07-30T02:10:41;7.30;;;3.77;;
20721;SDS011;10522;52.198;9.890;2022-07-30T02:13:10;4.43;;;3.13;;
20721;SDS011;10522;52.198;9.890;2022-07-30T02:15:40;7.43;;;4.03;;
20721;SDS011;10522;52.198;9.890;2022-07-30T02:18:14;7.93;;;4.30;;
20721;SDS011;10522;52.198;9.890;2022-07-30T02:20:44;5.20;;;3.73;;
20721;SDS011;10522;52.198;9.890;2022-07-30T02:23:14;4.37;;;3.43;;
20721;SDS011;10522;52.198;9.890;2022-07-30T02:25:42;5.40;;;3.73;;
20721;SDS011;10522;52.198;9.890;2022-07-30T02:28:13;7.00;;;3.83;;
20721;SDS011;10522;52.198;9.890;2022-07-30T02:30:43;4.40;;;3.57;;
20721;SDS011;10522;52.198;9.890;2022-07-30T02:33:22;4.20;;;3.60;;
20721;SDS011;10522;52.198;9.890;2022-07-30T02:35:51;5.13;;;4.00;;
20721;SDS011;10522;52.198;9.890;2022-07-30T02:38:18;4.93;;;3.43;;
20721;SDS011;10522;52.198;9.890;2022-07-30T02:40:45;7.47;;;3.30;;
20721;SDS011;10522;52.198;9.890;2022-07-30T02:43:13;6.20;;;3.27;;
20721;SDS011;10522;52.198;9.890;2022-07-30T02:45:40;6.43;;;3.57;;
20721;SDS011;10522;52.198;9.890;2022-07-30T02:48:07;3.80;;;3.33;;
20721;SDS011;10522;52.198;9.890;2022-07-30T02:50:34;7.37;;;3.70;;
20721;SDS011;10522;52.198;9.890;2022-07-30T02:53:00;8.90;;;3.63;;
20721;SDS011;10522;52.198;9.890;2022-07-30T02:55:29;4.40;;;3.73;;
20721;SDS011;10522;52.198;9.890;2022-07-30T02:57:56;3.97;;;3.30;;
20721;SDS011;10522;52.198;9.890;2022-07-30T03:00:24;4.30;;;3.17;;
20721;SDS011;10522;52.198;9.890;2022-07-30T03:02:51;5.93;;;3.37;;
20721;SDS011;10522;52.198;9.890;2022-07-30T03:05:18;6.60;;;4.40;;
20721;SDS011;10522;52.198;9.890;2022-07-30T03:07:44;6.13;;;3.53;;
20721;SDS011;10522;52.198;9.890;2022-07-30T03:10:11;6.53;;;3.60;;
20721;SDS011;10522;52.198;9.890;2022-07-30T03:12:38;5.47;;;3.63;;
20721;SDS011;10522;52.198;9.890;2022-07-30T03:15:08;5.93;;;3.87;;
20721;SDS011;10522;52.198;9.890;2022-07-30T03:17:36;3.63;;;3.03;;
20721;SDS011;10522;52.198;9.890;2022-07-30T03:20:06;6.60;;;3.57;;
20721;SDS011;10522;52.198;9.890;2022-07-30T03:22:33;5.63;;;4.63;;
20721;SDS011;10522;52.198;9.890;2022-07-30T03:25:05;4.63;;;3.80;;
20721;SDS011;10522;52.198;9.890;2022-07-30T03:27:32;6.80;;;3.47;;
20721;SDS011;10522;52.198;9.890;2022-07-30T03:30:02;3.83;;;3.50;;
20721;SDS011;10522;52.198;9.890;2022-07-30T03:32:29;3.80;;;3.10;;
20721;SDS011;10522;52.198;9.890;2022-07-30T03:34:55;8.47;;;3.37;;
20721;SDS011;10522;52.198;9.890;2022-07-30T03:37:23;4.57;;;3.23;;
20721;SDS011;10522;52.198;9.890;2022-07-30T03:39:50;3.97;;;2.97;;
20721;SDS011;10522;52.198;9.890;2022-07-30T03:42:18;3.33;;;3.03;;
20721;SDS011;10522;52.198;9.890;2022-07-30T03:44:44;7.27;;;3.60;;
20721;SDS011;10522;52.198;9.890;2022-07-30T03:47:11;5.17;;;3.53;;
20721;SDS011;10522;52.198;9.890;2022-07-30T03:49:38;7.67;;;3.53;;
20721;SDS011;10522;52.198;9.890;2022-07-30T03:52:04;5.67;;;3.40;;
20721;SDS011;10522;52.198;9.890;2022-07-30T03:54:31;8.63;;;4.03;;
20721;SDS011;10522;52.198;9.890;2022-07-30T03:56:58;6.33;;;4.40;;
20721;SDS011;10522;52.198;9.890;2022-07-30T03:59:24;5.60;;;3.97;;
20721;SDS011;10522;52.198;9.890;2022-07-30T04:01:50;5.87;;;3.60;;
20721;SDS011;10522;52.198;9.890;2022-07-30T04:04:16;4.63;;;3.73;;
20721;SDS011;10522;52.198;9.890;2022-07-30T04:06:42;8.60;;;3.53;;
20721;SDS011;10522;52.198;9.890;2022-07-30T04:09:11;4.17;;;3.57;;
20721;SDS011;10522;52.198;9.890;2022-07-30T04:11:37;8.70;;;3.83;;
20721;SDS011;10522;52.198;9.890;2022-07-30T04:14:03;7.47;;;4.07;;
20721;SDS011;10522;52.198;9.890;2022-07-30T04:19:28;6.40;;;4.03;;
20721;SDS011;10522;52.198;9.890;2022-07-30T04:22:03;4.90;;;3.87;;
20721;SDS011;10522;52.198;9.890;2022-07-30T04:24:31;4.87;;;3.63;;
20721;SDS011;10522;52.198;9.890;2022-07-30T04:26:58;5.97;;;3.57;;
20721;SDS011;10522;52.198;9.890;2022-07-30T04:29:24;4.77;;;3.43;;
20721;SDS011;10522;52.198;9.890;2022-07-30T04:31:52;4.70;;;3.77;;
20721;SDS011;10522;52.198;9.890;2022-07-30T04:34:18;4.83;;;3.63;;
20721;SDS011;10522;52.198;9.890;2022-07-30T04:36:44;4.60;;;3.50;;
20721;SDS011;10522;52.198;9.890;2022-07-30T04:39:09;5.90;;;3.37;;
20721;SDS011;10522;52.198;9.890;2022-07-30T04:41:36;5.33;;;3.90;;
20721;SDS011;10522;52.198;9.890;2022-07-30T04:44:02;3.53;;;3.00;;
20721;SDS011;10522;52.198;9.890;2022-07-30T04:46:28;4.20;;;3.63;;
20721;SDS011;10522;52.198;9.890;2022-07-30T04:48:53;6.50;;;3.57;;
20721;SDS011;10522;52.198;9.890;2022-07-30T04:51:22;4.20;;;3.10;;
20721;SDS011;10522;52.198;9.890;2022-07-30T04:53:53;5.20;;;3.90;;
20721;SDS011;10522;52.198;9.890;2022-07-30T04:56:21;5.77;;;3.77;;
20721;SDS011;10522;52.198;9.890;2022-07-30T04:58:47;4.90;;;3.63;;
20721;SDS011;10522;52.198;9.890;2022-07-30T05:01:15;5.37;;;4.07;;
20721;SDS011;10522;52.198;9.890;2022-07-30T05:03:45;4.57;;;3.40;;
20721;SDS011;10522;52.198;9.890;2022-07-30T05:06:11;6.93;;;3.50;;
20721;SDS011;10522;52.198;9.890;2022-07-30T05:08:37;5.60;;;4.10;;
20721;SDS011;10522;52.198;9.890;2022-07-30T05:11:04;7.37;;;4.10;;
20721;SDS011;10522;52.198;9.890;2022-07-30T05:13:29;8.00;;;5.50;;
20721;SDS011;10522;52.198;9.890;2022-07-30T05:15:55;6.10;;;4.30;;
20721;SDS011;10522;52.198;9.890;2022-07-30T05:18:21;4.90;;;3.90;;
20721;SDS011;10522;52.198;9.890;2022-07-30T05:20:46;5.60;;;3.47;;
20721;SDS011;10522;52.198;9.890;2022-07-30T05:23:12;5.10;;;4.07;;
20721;SDS011;10522;52.198;9.890;2022-07-30T05:25:37;7.10;;;4.07;;
20721;SDS011;10522;52.198;9.890;2022-07-30T05:28:03;4.53;;;3.93;;
20721;SDS011;10522;52.198;9.890;2022-07-30T05:30:28;7.50;;;3.93;;
20721;SDS011;10522;52.198;9.890;2022-07-30T05:32:54;5.50;;;3.67;;
20721;SDS011;10522;52.198;9.890;2022-07-30T05:35:19;6.60;;;4.57;;
20721;SDS011;10522;52.198;9.890;2022-07-30T05:37:45;7.10;;;4.83;;
20721;SDS011;10522;52.198;9.890;2022-07-30T05:40:11;6.67;;;4.20;;
20721;SDS011;10522;52.198;9.890;2022-07-30T05:42:36;7.63;;;4.20;;
20721;SDS011;10522;52.198;9.890;2022-07-30T05:45:02;6.53;;;5.10;;
20721;SDS011;10522;52.198;9.890;2022-07-30T05:47:27;7.67;;;4.77;;
20721;SDS011;10522;52.198;9.890;2022-07-30T05:49:53;7.97;;;5.40;;
20721;SDS011;10522;52.198;9.890;2022-07-30T05:52:20;6.27;;;5.03;;
20721;SDS011;10522;52.198;9.890;2022-07-30T05:54:45;5.33;;;4.80;;
20721;SDS011;10522;52.198;9.890;2022-07-30T05:57:11;8.67;;;5.27;;
20721;SDS011;10522;52.198;9.890;2022-07-30T05:59:37;5.50;;;4.87;;
20721;SDS011;10522;52.198;9.890;2022-07-30T06:02:02;7.83;;;5.43;;
20721;SDS011;10522;52.198;9.890;2022-07-30T06:04:28;8.10;;;5.40;;
20721;SDS011;10522;52.198;9.890;2022-07-30T06:06:54;10.27;;;5.87;;
20721;SDS011;10522;52.198;9.890;2022-07-30T06:09:20;9.03;;;4.97;;
20721;SDS011;10522;52.198;9.890;2022-07-30T06:11:46;10.93;;;5.97;;
20721;SDS011;10522;52.198;9.890;2022-07-30T06:14:11;11.50;;;5.60;;
20721;SDS011;10522;52.198;9.890;2022-07-30T06:16:37;12.10;;;6.80;;
20721;SDS011;10522;52.198;9.890;2022-07-30T06:19:03;8.57;;;5.53;;
20721;SDS011;10522;52.198;9.890;2022-07-30T06:21:28;9.97;;;6.33;;
20721;SDS011;10522;52.198;9.890;2022-07-30T06:23:54;7.17;;;5.90;;
20721;SDS011;10522;52.198;9.890;2022-07-30T06:26:19;9.80;;;6.73;;
20721;SDS011;10522;52.198;9.890;2022-07-30T06:28:45;9.83;;;6.63;;
20721;SDS011;10522;52.198;9.890;2022-07-30T06:31:10;9.87;;;6.33;;
20721;SDS011;10522;52.198;9.890;2022-07-30T06:33:36;7.33;;;5.23;;
20721;SDS011;10522;52.198;9.890;2022-07-30T06:36:02;7.07;;;5.23;;
20721;SDS011;10522;52.198;9.890;2022-07-30T06:38:27;7.37;;;5.63;;
20721;SDS011;10522;52.198;9.890;2022-07-30T06:40:53;7.70;;;5.77;;
20721;SDS011;10522;52.198;9.890;2022-07-30T06:43:18;9.73;;;5.67;;
20721;SDS011;10522;52.198;9.890;2022-07-30T06:45:45;6.77;;;5.77;;
20721;SDS011;10522;52.198;9.890;2022-07-30T06:48:10;9.20;;;5.87;;
20721;SDS011;10522;52.198;9.890;2022-07-30T06:50:36;8.40;;;6.27;;
20721;SDS011;10522;52.198;9.890;2022-07-30T06:53:01;10.30;;;6.77;;
20721;SDS011;10522;52.198;9.890;2022-07-30T06:55:27;8.80;;;6.77;;
20721;SDS011;10522;52.198;9.890;2022-07-30T06:57:52;11.40;;;5.80;;
20721;SDS011;10522;52.198;9.890;2022-07-30T07:00:18;8.93;;;6.23;;
20721;SDS011;10522;52.198;9.890;2022-07-30T07:02:44;11.20;;;6.57;;
20721;SDS011;10522;52.198;9.890;2022-07-30T07:05:10;9.30;;;6.37;;
20721;SDS011;10522;52.198;9.890;2022-07-30T07:07:36;8.30;;;5.60;;
20721;SDS011;10522;52.198;9.890;2022-07-30T07:10:02;6.60;;;5.73;;
20721;SDS011;10522;52.198;9.890;2022-07-30T07:12:28;7.07;;;5.23;;
20721;SDS011;10522;52.198;9.890;2022-07-30T07:14:53;7.80;;;5.10;;
20721;SDS011;10522;52.198;9.890;2022-07-30T07:17:19;9.77;;;6.37;;
20721;SDS011;10522;52.198;9.890;2022-07-30T07:19:44;6.37;;;4.43;;
20721;SDS011;10522;52.198;9.890;2022-07-30T07:22:10;4.63;;;4.00;;
20721;SDS011;10522;52.198;9.890;2022-07-30T07:24:35;7.47;;;4.47;;
20721;SDS011;10522;52.198;9.890;2022-07-30T07:27:01;9.53;;;3.77;;
20721;SDS011;10522;52.198;9.890;2022-07-30T07:29:26;4.70;;;3.27;;
20721;SDS011;10522;52.198;9.890;2022-07-30T07:31:52;3.63;;;3.20;;
20721;SDS011;10522;52.198;9.890;2022-07-30T07:34:17;4.87;;;3.30;;
20721;SDS011;10522;52.198;9.890;2022-07-30T07:36:43;4.00;;;3.20;;
20721;SDS011;10522;52.198;9.890;2022-07-30T07:39:08;4.63;;;2.60;;
20721;SDS011;10522;52.198;9.890;2022-07-30T07:41:37;4.73;;;4.27;;
20721;SDS011;10522;52.198;9.890;2022-07-30T07:44:03;7.43;;;3.37;;
20721;SDS011;10522;52.198;9.890;2022-07-30T07:46:29;5.07;;;2.63;;
20721;SDS011;10522;52.198;9.890;2022-07-30T07:48:55;4.00;;;3.37;;
20721;SDS011;10522;52.198;9.890;2022-07-30T07:51:21;6.63;;;2.80;;
20721;SDS011;10522;52.198;9.890;2022-07-30T07:53:47;5.53;;;2.53;;
20721;SDS011;10522;52.198;9.890;2022-07-30T07:56:16;3.90;;;2.57;;
20721;SDS011;10522;52.198;9.890;2022-07-30T07:58:42;4.37;;;2.50;;
20721;SDS011;10522;52.198;9.890;2022-07-30T08:01:11;2.87;;;2.43;;
20721;SDS011;10522;52.198;9.890;2022-07-30T08:03:38;4.27;;;2.03;;
20721;SDS011;10522;52.198;9.890;2022-07-30T08:06:04;4.73;;;2.60;;
20721;SDS011;10522;52.198;9.890;2022-07-30T08:08:30;2.50;;;2.30;;
20721;SDS011;10522;52.198;9.890;2022-07-30T08:10:55;2.70;;;2.27;;
20721;SDS011;10522;52.198;9.890;2022-07-30T08:13:21;2.97;;;2.60;;
20721;SDS011;10522;52.198;9.890;2022-07-30T08:15:47;3.93;;;2.73;;
20721;SDS011;10522;52.198;9.890;2022-07-30T08:18:13;2.87;;;2.10;;
20721;SDS011;10522;52.198;9.890;2022-07-30T08:20:39;3.40;;;2.20;;
20721;SDS011;10522;52.198;9.890;2022-07-30T08:23:05;3.60;;;2.30;;
20721;SDS011;10522;52.198;9.890;2022-07-30T08:25:31;2.60;;;2.00;;
20721;SDS011;10522;52.198;9.890;2022-07-30T08:27:57;3.67;;;2.67;;
20721;SDS011;10522;52.198;9.890;2022-07-30T08:30:24;4.17;;;2.87;;
20721;SDS011;10522;52.198;9.890;2022-07-30T08:32:50;4.37;;;3.03;;
20721;SDS011;10522;52.198;9.890;2022-07-30T08:35:15;4.97;;;2.87;;
20721;SDS011;10522;52.198;9.890;2022-07-30T08:37:41;4.77;;;2.93;;
20721;SDS011;10522;52.198;9.890;2022-07-30T08:40:06;3.83;;;3.10;;
20721;SDS011;10522;52.198;9.890;2022-07-30T08:42:33;3.53;;;2.60;;
20721;SDS011;10522;52.198;9.890;2022-07-30T08:44:59;5.07;;;3.97;;
20721;SDS011;10522;52.198;9.890;2022-07-30T08:47:27;3.97;;;2.90;;
20721;SDS011;10522;52.198;9.890;2022-07-30T08:49:55;3.20;;;2.80;;
20721;SDS011;10522;52.198;9.890;2022-07-30T08:52:29;2.83;;;2.53;;
20721;SDS011;10522;52.198;9.890;2022-07-30T08:54:57;7.23;;;3.23;;
20721;SDS011;10522;52.198;9.890;2022-07-30T08:57:23;4.20;;;3.00;;
20721;SDS011;10522;52.198;9.890;2022-07-30T08:59:49;4.83;;;2.83;;
20721;SDS011;10522;52.198;9.890;2022-07-30T09:02:15;6.30;;;3.00;;
20721;SDS011;10522;52.198;9.890;2022-07-30T09:04:41;5.37;;;3.20;;
20721;SDS011;10522;52.198;9.890;2022-07-30T09:07:06;4.03;;;2.70;;
20721;SDS011;10522;52.198;9.890;2022-07-30T09:09:32;3.93;;;3.00;;
20721;SDS011;10522;52.198;9.890;2022-07-30T09:11:58;3.60;;;2.90;;
20721;SDS011;10522;52.198;9.890;2022-07-30T09:14:23;7.00;;;3.20;;
20721;SDS011;10522;52.198;9.890;2022-07-30T09:16:54;3.10;;;2.40;;
20721;SDS011;10522;52.198;9.890;2022-07-30T09:19:21;5.30;;;3.10;;
20721;SDS011;10522;52.198;9.890;2022-07-30T09:21:56;3.13;;;2.83;;
20721;SDS011;10522;52.198;9.890;2022-07-30T09:24:23;3.43;;;2.53;;
20721;SDS011;10522;52.198;9.890;2022-07-30T09:26:59;2.63;;;2.37;;
20721;SDS011;10522;52.198;9.890;2022-07-30T09:29:27;6.93;;;2.23;;
20721;SDS011;10522;52.198;9.890;2022-07-30T09:31:58;3.80;;;2.30;;
20721;SDS011;10522;52.198;9.890;2022-07-30T09:34:33;2.43;;;2.17;;
20721;SDS011;10522;52.198;9.890;2022-07-30T09:37:04;3.37;;;2.43;;
20721;SDS011;10522;52.198;9.890;2022-07-30T09:39:35;2.30;;;2.10;;
20721;SDS011;10522;52.198;9.890;2022-07-30T09:42:04;2.67;;;2.30;;
20721;SDS011;10522;52.198;9.890;2022-07-30T09:44:45;3.33;;;1.97;;
20721;SDS011;10522;52.198;9.890;2022-07-30T09:47:30;7.93;;;4.70;;
20721;SDS011;10522;52.198;9.890;2022-07-30T09:52:35;2.40;;;2.00;;
20721;SDS011;10522;52.198;9.890;2022-07-30T09:55:01;3.60;;;2.20;;
20721;SDS011;10522;52.198;9.890;2022-07-30T09:57:27;3.57;;;1.70;;
20721;SDS011;10522;52.198;9.890;2022-07-30T09:59:54;3.43;;;1.40;;
20721;SDS011;10522;52.198;9.890;2022-07-30T10:02:25;5.27;;;1.60;;
20721;SDS011;10522;52.198;9.890;2022-07-30T10:05:07;3.97;;;1.93;;
20721;SDS011;10522;52.198;9.890;2022-07-30T10:07:37;2.60;;;1.80;;
20721;SDS011;10522;52.198;9.890;2022-07-30T10:10:02;2.40;;;1.70;;
20721;SDS011;10522;52.198;9.890;2022-07-30T10:12:29;3.03;;;1.97;;
20721;SDS011;10522;52.198;9.890;2022-07-30T10:14:56;1.87;;;1.77;;
20721;SDS011;10522;52.198;9.890;2022-07-30T10:17:25;5.53;;;3.57;;
20721;SDS011;10522;52.198;9.890;2022-07-30T10:19:51;3.07;;;1.87;;
20721;SDS011;10522;52.198;9.890;2022-07-30T10:22:17;2.23;;;2.03;;
20721;SDS011;10522;52.198;9.890;2022-07-30T10:24:44;2.60;;;2.00;;
20721;SDS011;10522;52.198;9.890;2022-07-30T10:27:12;2.47;;;2.00;;
20721;SDS011;10522;52.198;9.890;2022-07-30T10:29:38;2.10;;;1.70;;
20721;SDS011;10522;52.198;9.890;2022-07-30T10:32:04;4.70;;;2.30;;
20721;SDS011;10522;52.198;9.890;2022-07-30T10:34:30;3.50;;;2.10;;
20721;SDS011;10522;52.198;9.890;2022-07-30T10:36:59;3.23;;;1.87;;
20721;SDS011;10522;52.198;9.890;2022-07-30T10:39:38;2.57;;;2.17;;
20721;SDS011;10522;52.198;9.890;2022-07-30T10:48:13;3.17;;;2.03;;
20721;SDS011;10522;52.198;9.890;2022-07-30T10:50:56;3.30;;;2.00;;
20721;SDS011;10522;52.198;9.890;2022-07-30T10:53:39;2.00;;;1.90;;
20721;SDS011;10522;52.198;9.890;2022-07-30T11:02:06;2.27;;;2.07;;
20721;SDS011;10522;52.198;9.890;2022-07-30T11:04:17;2.87;;;2.17;;
20721;SDS011;10522;52.198;9.890;2022-07-30T11:06:50;2.03;;;1.83;;
20721;SDS011;10522;52.198;9.890;2022-07-30T11:09:35;2.37;;;2.17;;
20721;SDS011;10522;52.198;9.890;2022-07-30T11:12:03;5.40;;;3.83;;
20721;SDS011;10522;52.198;9.890;2022-07-30T11:17:11;3.00;;;2.37;;
20721;SDS011;10522;52.198;9.890;2022-07-30T11:22:26;4.47;;;2.80;;
20721;SDS011;10522;52.198;9.890;2022-07-30T11:24:55;2.90;;;2.60;;
20721;SDS011;10522;52.198;9.890;2022-07-30T11:32:43;1.93;;;1.83;;
20721;SDS011;10522;52.198;9.890;2022-07-30T11:45:42;3.60;;;2.37;;
20721;SDS011;10522;52.198;9.890;2022-07-30T11:48:12;2.30;;;2.13;;
20721;SDS011;10522;52.198;9.890;2022-07-30T11:50:40;2.30;;;2.10;;
20721;SDS011;10522;52.198;9.890;2022-07-30T11:53:07;3.17;;;2.23;;
20721;SDS011;10522;52.198;9.890;2022-07-30T11:55:35;2.80;;;2.10;;
20721;SDS011;10522;52.198;9.890;2022-07-30T11:58:04;2.97;;;2.23;;
20721;SDS011;10522;52.198;9.890;2022-07-30T12:00:37;4.03;;;2.40;;
20721;SDS011;10522;52.198;9.890;2022-07-30T12:06:08;2.30;;;2.10;;
20721;SDS011;10522;52.198;9.890;2022-07-30T12:08:41;2.97;;;2.00;;
20721;SDS011;10522;52.198;9.890;2022-07-30T12:11:07;3.30;;;2.13;;
20721;SDS011;10522;52.198;9.890;2022-07-30T12:13:34;2.00;;;1.80;;
20721;SDS011;10522;52.198;9.890;2022-07-30T12:16:03;2.00;;;1.90;;
20721;SDS011;10522;52.198;9.890;2022-07-30T12:18:33;4.53;;;2.80;;
20721;SDS011;10522;52.198;9.890;2022-07-30T12:20:59;2.83;;;2.63;;
20721;SDS011;10522;52.198;9.890;2022-07-30T12:23:39;5.37;;;2.07;;
20721;SDS011;10522;52.198;9.890;2022-07-30T12:26:18;2.17;;;2.03;;
20721;SDS011;10522;52.198;9.890;2022-07-30T12:28:46;5.33;;;3.03;;
20721;SDS011;10522;52.198;9.890;2022-07-30T12:31:13;3.00;;;2.10;;
20721;SDS011;10522;52.198;9.890;2022-07-30T12:33:40;2.83;;;2.40;;
20721;SDS011;10522;52.198;9.890;2022-07-30T12:36:06;4.27;;;2.33;;
20721;SDS011;10522;52.198;9.890;2022-07-30T12:38:41;1.97;;;1.87;;
20721;SDS011;10522;52.198;9.890;2022-07-30T12:41:14;2.80;;;1.97;;
20721;SDS011;10522;52.198;9.890;2022-07-30T12:43:47;2.33;;;2.13;;
20721;SDS011;10522;52.198;9.890;2022-07-30T12:46:21;3.70;;;2.20;;
20721;SDS011;10522;52.198;9.890;2022-07-30T12:48:56;1.70;;;1.60;;
20721;SDS011;10522;52.198;9.890;2022-07-30T12:51:22;2.00;;;1.90;;
20721;SDS011;10522;52.198;9.890;2022-07-30T12:53:51;3.63;;;2.10;;
20721;SDS011;10522;52.198;9.890;2022-07-30T12:56:21;3.33;;;2.33;;
20721;SDS011;10522;52.198;9.890;2022-07-30T12:58:48;2.40;;;2.20;;
20721;SDS011;10522;52.198;9.890;2022-07-30T13:01:13;2.80;;;2.60;;
20721;SDS011;10522;52.198;9.890;2022-07-30T13:03:39;3.33;;;3.03;;
20721;SDS011;10522;52.198;9.890;2022-07-30T13:06:13;3.80;;;2.37;;
20721;SDS011;10522;52.198;9.890;2022-07-30T13:08:49;2.83;;;2.30;;
20721;SDS011;10522;52.198;9.890;2022-07-30T13:11:37;4.67;;;3.10;;
20721;SDS011;10522;52.198;9.890;2022-07-30T13:14:15;3.60;;;2.73;;
20721;SDS011;10522;52.198;9.890;2022-07-30T13:16:46;5.23;;;2.93;;
20721;SDS011;10522;52.198;9.890;2022-07-30T13:19:11;2.50;;;2.30;;
20721;SDS011;10522;52.198;9.890;2022-07-30T13:21:37;4.27;;;2.80;;
20721;SDS011;10522;52.198;9.890;2022-07-30T13:24:04;2.60;;;2.37;;
20721;SDS011;10522;52.198;9.890;2022-07-30T13:26:30;5.33;;;2.40;;
20721;SDS011;10522;52.198;9.890;2022-07-30T13:28:56;5.73;;;3.20;;
20721;SDS011;10522;52.198;9.890;2022-07-30T13:31:23;3.17;;;2.60;;
20721;SDS011;10522;52.198;9.890;2022-07-30T13:33:49;2.63;;;2.43;;
20721;SDS011;10522;52.198;9.890;2022-07-30T13:36:15;2.77;;;2.50;;
20721;SDS011;10522;52.198;9.890;2022-07-30T13:38:42;4.43;;;2.97;;
20721;SDS011;10522;52.198;9.890;2022-07-30T13:41:07;4.20;;;2.73;;
20721;SDS011;10522;52.198;9.890;2022-07-30T13:43:33;4.53;;;3.37;;
20721;SDS011;10522;52.198;9.890;2022-07-30T13:45:59;5.37;;;2.63;;
20721;SDS011;10522;52.198;9.890;2022-07-30T13:48:26;3.93;;;2.80;;
20721;SDS011;10522;52.198;9.890;2022-07-30T13:50:52;3.20;;;2.27;;
20721;SDS011;10522;52.198;9.890;2022-07-30T13:53:17;3.10;;;2.47;;
20721;SDS011;10522;52.198;9.890;2022-07-30T13:55:43;3.13;;;2.30;;
20721;SDS011;10522;52.198;9.890;2022-07-30T13:58:10;3.37;;;2.10;;
20721;SDS011;10522;52.198;9.890;2022-07-30T14:00:36;2.70;;;2.00;;
20721;SDS011;10522;52.198;9.890;2022-07-30T14:03:03;1.87;;;1.77;;
20721;SDS011;10522;52.198;9.890;2022-07-30T14:05:34;2.83;;;2.53;;
20721;SDS011;10522;52.198;9.890;2022-07-30T14:08:01;2.07;;;1.87;;
20721;SDS011;10522;52.198;9.890;2022-07-30T14:10:27;2.47;;;2.27;;
20721;SDS011;10522;52.198;9.890;2022-07-30T14:12:53;3.00;;;2.70;;
20721;SDS011;10522;52.198;9.890;2022-07-30T14:15:20;5.53;;;2.50;;
20721;SDS011;10522;52.198;9.890;2022-07-30T14:17:46;3.87;;;2.67;;
20721;SDS011;10522;52.198;9.890;2022-07-30T14:20:12;2.87;;;2.20;;
20721;SDS011;10522;52.198;9.890;2022-07-30T14:22:38;4.47;;;2.83;;
20721;SDS011;10522;52.198;9.890;2022-07-30T14:25:03;3.43;;;2.40;;
20721;SDS011;10522;52.198;9.890;2022-07-30T14:27:30;3.17;;;2.90;;
20721;SDS011;10522;52.198;9.890;2022-07-30T14:29:55;2.53;;;2.20;;
20721;SDS011;10522;52.198;9.890;2022-07-30T14:32:21;3.23;;;2.30;;
20721;SDS011;10522;52.198;9.890;2022-07-30T14:34:46;2.33;;;2.10;;
20721;SDS011;10522;52.198;9.890;2022-07-30T14:37:11;2.37;;;2.00;;
20721;SDS011;10522;52.198;9.890;2022-07-30T14:39:37;2.43;;;2.23;;
20721;SDS011;10522;52.198;9.890;2022-07-30T14:42:02;5.17;;;2.50;;
20721;SDS011;10522;52.198;9.890;2022-07-30T14:44:30;3.73;;;2.80;;
20721;SDS011;10522;52.198;9.890;2022-07-30T14:46:56;4.83;;;2.90;;
20721;SDS011;10522;52.198;9.890;2022-07-30T14:49:21;2.93;;;2.63;;
20721;SDS011;10522;52.198;9.890;2022-07-30T14:51:47;3.13;;;2.63;;
20721;SDS011;10522;52.198;9.890;2022-07-30T14:54:12;4.47;;;2.90;;
20721;SDS011;10522;52.198;9.890;2022-07-30T14:56:38;2.77;;;2.53;;
20721;SDS011;10522;52.198;9.890;2022-07-30T14:59:04;3.27;;;2.80;;
20721;SDS011;10522;52.198;9.890;2022-07-30T15:01:29;3.00;;;2.70;;
20721;SDS011;10522;52.198;9.890;2022-07-30T15:03:55;5.83;;;3.30;;
20721;SDS011;10522;52.198;9.890;2022-07-30T15:06:21;3.20;;;2.57;;
20721;SDS011;10522;52.198;9.890;2022-07-30T15:08:47;3.73;;;2.87;;
20721;SDS011;10522;52.198;9.890;2022-07-30T15:11:12;3.43;;;2.70;;
20721;SDS011;10522;52.198;9.890;2022-07-30T15:13:40;5.43;;;2.63;;
20721;SDS011;10522;52.198;9.890;2022-07-30T15:16:06;6.33;;;3.33;;
20721;SDS011;10522;52.198;9.890;2022-07-30T15:18:31;5.23;;;3.27;;
20721;SDS011;10522;52.198;9.890;2022-07-30T15:20:58;3.87;;;2.73;;
20721;SDS011;10522;52.198;9.890;2022-07-30T15:23:23;3.13;;;2.57;;
20721;SDS011;10522;52.198;9.890;2022-07-30T15:25:49;4.87;;;2.97;;
20721;SDS011;10522;52.198;9.890;2022-07-30T15:28:14;3.20;;;2.87;;
20721;SDS011;10522;52.198;9.890;2022-07-30T15:30:40;2.90;;;2.60;;
20721;SDS011;10522;52.198;9.890;2022-07-30T15:33:06;4.93;;;2.80;;
20721;SDS011;10522;52.198;9.890;2022-07-30T15:35:31;3.50;;;3.20;;
20721;SDS011;10522;52.198;9.890;2022-07-30T15:37:57;3.93;;;3.03;;
20721;SDS011;10522;52.198;9.890;2022-07-30T15:40:23;3.33;;;3.03;;
20721;SDS011;10522;52.198;9.890;2022-07-30T15:42:48;3.60;;;2.77;;